Time;durP1;ratioP1;P1;durP2;ratioP2;P2;SDS_P1;SDS_P2;PMS_P1;PMS_P2;Temp;Humidity;BMP_temperature;BMP_pressure;BME280_temperature;BME280_humidity;BME280_pressure;Samples;Min_cycle;Max_cycle;Signal;HPM_P1;HPM_P2
2023/08/02 00:01:13;;;;;;;;;;;13.00;99.90;;;;;;5091065;28;20109;-64
2023/08/02 00:03:39;;;;;;;7.85;2.25;;;13.10;99.90;;;;;;5078589;28;20046;-64
2023/08/02 00:06:04;;;;;;;;;;;13.00;99.90;;;;;;5079321;28;20056;-64
2023/08/02 00:08:30;;;;;;;7.15;2.25;;;13.00;99.90;;;;;;5072642;28;20011;-65
2023/08/02 00:10:56;;;;;;;;;;;13.00;99.90;;;;;;5080041;28;20044;-65
2023/08/02 00:13:21;;;;;;;5.88;2.45;;;12.90;99.90;;;;;;5078739;28;19927;-64
2023/08/02 00:15:47;;;;;;;;;;;13.00;99.90;;;;;;5074018;28;20032;-64
2023/08/02 00:18:13;;;;;;;7.45;2.33;;;13.00;99.90;;;;;;5065621;28;19920;-65
2023/08/02 00:20:39;;;;;;;10.43;2.53;;;12.90;99.90;;;;;;5062212;28;20127;-65
2023/08/02 00:23:06;;;;;;;9.52;2.70;;;12.90;99.90;;;;;;5057551;28;20037;-65
2023/08/02 00:25:32;;;;;;;7.43;2.85;;;13.00;99.90;;;;;;5057152;28;20036;-65
2023/08/02 00:27:58;;;;;;;6.38;2.50;;;13.00;99.90;;;;;;5059264;28;20451;-65
2023/08/02 00:30:24;;;;;;;7.03;2.80;;;13.10;99.90;;;;;;5062919;28;20032;-66
2023/08/02 00:32:50;;;;;;;;;;;13.00;99.90;;;;;;5065416;28;20601;-65
2023/08/02 00:35:16;;;;;;;10.50;2.70;;;13.00;99.90;;;;;;5065380;28;19982;-65
2023/08/02 00:37:42;;;;;;;9.07;3.08;;;13.00;99.90;;;;;;5061811;28;20044;-65
2023/08/02 00:40:08;;;;;;;12.23;2.90;;;13.00;99.90;;;;;;5063142;28;20567;-65
2023/08/02 00:42:37;;;;;;;6.10;3.13;;;13.00;99.90;;;;;;5065119;28;20123;-65
2023/08/02 00:45:03;;;;;;;9.32;3.13;;;13.00;99.90;;;;;;5064178;28;20067;-65
2023/08/02 00:47:30;;;;;;;;;;;13.00;99.90;;;;;;5066474;28;20510;-64
2023/08/02 00:49:55;;;;;;;5.90;3.30;;;13.00;99.90;;;;;;5064511;28;19928;-65
2023/08/02 00:52:21;;;;;;;;;;;13.00;99.90;;;;;;5063571;28;20044;-66
2023/08/02 00:54:48;;;;;;;11.82;3.58;;;13.00;99.90;;;;;;5064723;28;19927;-65
2023/08/02 00:57:14;;;;;;;10.32;3.47;;;12.90;99.90;;;;;;5064849;28;20047;-65
2023/08/02 00:59:40;;;;;;;;;;;13.00;99.90;;;;;;5061403;28;20048;-65
2023/08/02 01:02:06;;;;;;;12.40;4.70;;;12.90;99.90;;;;;;5057680;28;19924;-65
2023/08/02 01:04:33;;;;;;;11.10;4.35;;;12.90;99.90;;;;;;5063386;28;20120;-65
2023/08/02 01:07:18;;;;;;;9.40;4.75;;;12.90;99.90;;;;;;5065265;28;20126;-65
2023/08/02 01:10:04;;;;;;;12.07;4.57;;;12.90;99.90;;;;;;5063506;28;20044;-64
2023/08/02 01:12:31;;;;;;;9.15;4.78;;;12.90;99.90;;;;;;5066302;28;20130;-65
2023/08/02 01:15:01;;;;;;;10.68;4.97;;;12.90;99.90;;;;;;5058556;28;20068;-64
2023/08/02 01:17:28;;;;;;;14.52;5.20;;;12.90;99.90;;;;;;5062205;28;20102;-65
2023/08/02 01:19:53;;;;;;;14.25;5.03;;;12.80;99.90;;;;;;5060550;28;20037;-66
2023/08/02 01:22:20;;;;;;;;;;;12.80;99.90;;;;;;5066196;28;20051;-65
2023/08/02 01:24:46;;;;;;;34.20;6.40;;;12.90;99.90;;;;;;5064800;28;19995;-65
2023/08/02 01:27:15;;;;;;;;;;;12.90;99.90;;;;;;5064608;28;20078;-66
2023/08/02 01:29:46;;;;;;;4.95;3.67;;;12.80;99.90;;;;;;5055302;28;19994;-65
2023/08/02 01:32:12;;;;;;;4.85;4.00;;;12.90;99.90;;;;;;5063886;28;20059;-65
2023/08/02 01:34:38;;;;;;;;;;;12.90;99.90;;;;;;5065224;28;20048;-64
2023/08/02 01:37:04;;;;;;;6.72;3.15;;;12.90;99.90;;;;;;5065109;28;19916;-64
2023/08/02 01:39:30;;;;;;;;;;;12.90;99.90;;;;;;5064585;28;20049;-64
2023/08/02 01:41:55;;;;;;;4.97;3.20;;;12.90;99.90;;;;;;5062845;28;20304;-64
2023/08/02 01:44:21;;;;;;;;;;;12.90;99.90;;;;;;5063691;28;20090;-64
2023/08/02 01:46:46;;;;;;;5.43;2.63;;;12.90;99.90;;;;;;5063362;28;19925;-64
2023/08/02 01:49:12;;;;;;;;;;;13.00;99.90;;;;;;5057148;28;20040;-64
2023/08/02 01:51:37;;;;;;;4.85;2.20;;;12.90;99.90;;;;;;5058641;28;19965;-64
2023/08/02 01:54:03;;;;;;;;;;;12.90;99.90;;;;;;5058795;28;20059;-64
2023/08/02 01:56:28;;;;;;;5.32;2.65;;;13.00;99.90;;;;;;5055932;28;19929;-64
2023/08/02 01:58:54;;;;;;;;;;;13.00;99.90;;;;;;5060900;28;20515;-65
2023/08/02 02:01:20;;;;;;;6.25;2.08;;;12.90;99.90;;;;;;5053849;28;19917;-66
2023/08/02 02:03:45;;;;;;;;;;;13.00;99.90;;;;;;5057021;28;20044;-66
2023/08/02 02:06:11;;;;;;;5.15;1.67;;;13.00;99.90;;;;;;5059267;28;19921;-66
2023/08/02 02:08:36;;;;;;;;;;;13.00;99.90;;;;;;5060358;28;20036;-66
2023/08/02 02:11:03;;;;;;;4.05;1.63;;;13.00;99.90;;;;;;5063542;28;19931;-66
2023/08/02 02:13:29;;;;;;;6.72;1.40;;;13.00;99.90;;;;;;5058306;28;20123;-66
2023/08/02 02:15:55;;;;;;;;;;;13.00;99.90;;;;;;5061834;28;20186;-66
2023/08/02 02:18:21;;;;;;;3.45;1.30;;;13.00;99.90;;;;;;5062592;28;20014;-65
2023/08/02 02:20:46;;;;;;;;;;;13.00;99.90;;;;;;5078426;28;20036;-66
2023/08/02 02:23:12;;;;;;;4.43;1.30;;;13.00;99.90;;;;;;5063577;28;19920;-66
2023/08/02 02:25:37;;;;;;;;;;;13.00;99.90;;;;;;5063240;28;20048;-66
2023/08/02 02:28:03;;;;;;;5.88;1.88;;;13.00;99.90;;;;;;5059800;28;19951;-66
2023/08/02 02:30:29;;;;;;;4.53;1.95;;;13.10;99.90;;;;;;5060651;28;20512;-66
2023/08/02 02:32:55;;;;;;;5.57;1.42;;;13.00;99.90;;;;;;5059064;28;20051;-66
2023/08/02 02:35:20;;;;;;;;;;;13.00;99.90;;;;;;5048566;28;20033;-66
2023/08/02 02:37:46;;;;;;;5.10;1.40;;;12.90;99.90;;;;;;5059073;28;19920;-66
2023/08/02 02:40:12;;;;;;;;;;;12.90;99.90;;;;;;5058735;28;20044;-65
2023/08/02 02:42:43;;;;;;;6.15;1.50;;;12.90;99.90;;;;;;5062283;28;19920;-66
2023/08/02 02:45:09;;;;;;;4.18;1.40;;;12.90;99.90;;;;;;5061130;28;20091;-66
2023/08/02 02:47:34;;;;;;;;;;;12.90;99.90;;;;;;5061945;28;20076;-66
2023/08/02 02:50:00;;;;;;;4.93;1.25;;;12.90;99.90;;;;;;5061026;28;19978;-65
2023/08/02 02:52:25;;;;;;;;;;;12.90;99.90;;;;;;5063427;28;20076;-66
2023/08/02 02:54:51;;;;;;;3.63;1.33;;;12.90;99.90;;;;;;5062712;28;19941;-65
2023/08/02 02:57:17;;;;;;;5.07;1.40;;;12.90;99.90;;;;;;5062998;28;20583;-65
2023/08/02 02:59:43;;;;;;;;;;;12.90;99.90;;;;;;5062003;28;20068;-66
2023/08/02 03:02:09;;;;;;;6.90;1.80;;;12.90;99.90;;;;;;5062524;28;19920;-66
2023/08/02 03:04:34;;;;;;;;;;;12.90;99.90;;;;;;5063608;28;20108;-67
2023/08/02 03:07:00;;;;;;;4.20;1.48;;;12.90;99.90;;;;;;5063005;28;19920;-66
2023/08/02 03:09:26;;;;;;;;;;;12.90;99.90;;;;;;5053848;28;20045;-67
2023/08/02 03:11:51;;;;;;;6.40;1.88;;;12.90;99.90;;;;;;5054083;28;20421;-66
2023/08/02 03:14:17;;;;;;;;;;;12.90;99.90;;;;;;5063751;28;20660;-66
2023/08/02 03:16:45;;;;;;;6.35;1.63;;;13.00;99.90;;;;;;5062898;28;19920;-67
2023/08/02 03:19:17;;;;;;;6.32;1.60;;;13.00;99.90;;;;;;5062785;28;20125;-67
2023/08/02 03:21:45;;;;;;;1.98;1.38;;;13.00;99.90;;;;;;5055150;28;20169;-67
2023/08/02 03:24:12;;;;;;;6.00;1.52;;;13.00;99.90;;;;;;5037915;28;20040;-66
2023/08/02 03:26:37;;;;;;;6.57;1.88;;;13.10;99.90;;;;;;5047351;28;20044;-65
2023/08/02 03:29:03;;;;;;;;;;;13.10;99.90;;;;;;5047210;28;20097;-66
2023/08/02 03:31:28;;;;;;;6.60;2.03;;;13.10;99.90;;;;;;5047176;28;19927;-66
2023/08/02 03:33:54;;;;;;;;;;;13.10;99.90;;;;;;5050887;28;20047;-65
2023/08/02 03:36:19;;;;;;;4.40;1.67;;;13.20;99.90;;;;;;5051203;28;19943;-66
2023/08/02 03:38:45;;;;;;;3.20;1.90;;;13.20;99.90;;;;;;5040145;28;20076;-66
2023/08/02 03:41:11;;;;;;;;;;;13.10;99.90;;;;;;5036605;28;20040;-65
2023/08/02 03:43:36;;;;;;;7.38;1.90;;;13.20;99.90;;;;;;5053764;28;19973;-66
2023/08/02 03:46:02;;;;;;;4.53;1.60;;;13.10;99.90;;;;;;5047781;28;20045;-66
2023/08/02 03:48:28;;;;;;;;;;;13.10;99.90;;;;;;5053337;28;20094;-66
2023/08/02 03:50:56;;;;;;;6.43;2.07;;;13.10;99.90;;;;;;5051599;28;20621;-66
2023/08/02 03:53:22;;;;;;;5.82;2.05;;;13.10;99.90;;;;;;5055940;28;20295;-66
2023/08/02 03:55:48;;;;;;;6.40;1.95;;;13.10;99.90;;;;;;5060067;28;20117;-66
2023/08/02 03:58:13;;;;;;;;;;;13.20;99.90;;;;;;5059834;28;20448;-66
2023/08/02 04:00:39;;;;;;;4.60;1.40;;;13.20;99.90;;;;;;5056075;28;20548;-66
2023/08/02 04:03:04;;;;;;;;;;;13.20;99.90;;;;;;5061079;28;20291;-66
2023/08/02 04:05:30;;;;;;;1.55;1.30;;;13.30;99.90;;;;;;5074372;28;19928;-66
2023/08/02 04:07:56;;;;;;;3.78;1.30;;;13.30;99.90;;;;;;5078249;28;20066;-66
2023/08/02 04:10:21;;;;;;;;;;;13.30;99.90;;;;;;5060840;28;20427;-66
2023/08/02 04:12:53;;;;;;;3.00;1.48;;;13.30;99.90;;;;;;5059966;28;20298;-66
2023/08/02 04:15:18;;;;;;;5.65;1.58;;;13.30;99.90;;;;;;5053879;28;20885;-66
2023/08/02 04:17:44;;;;;;;;;;;13.30;99.90;;;;;;5058321;28;20041;-66
2023/08/02 04:20:10;;;;;;;3.63;1.40;;;13.30;99.90;;;;;;5056076;28;19920;-66
2023/08/02 04:22:36;;;;;;;4.47;1.33;;;13.30;99.90;;;;;;5057595;28;20048;-66
2023/08/02 04:25:03;;;;;;;;;;;13.30;99.90;;;;;;5059594;28;20048;-65
2023/08/02 04:27:29;;;;;;;2.67;1.23;;;13.40;99.90;;;;;;5059365;28;20015;-65
2023/08/02 04:29:55;;;;;;;3.15;1.27;;;13.40;99.90;;;;;;5060266;28;20081;-65
2023/08/02 04:32:20;;;;;;;;;;;13.40;99.90;;;;;;5060986;28;20507;-65
2023/08/02 04:34:46;;;;;;;4.57;1.48;;;13.40;99.90;;;;;;5056867;28;19917;-66
2023/08/02 04:37:11;;;;;;;;;;;13.40;99.90;;;;;;5061225;28;20055;-66
2023/08/02 04:39:37;;;;;;;3.13;1.33;;;13.40;99.90;;;;;;5055905;28;19932;-66
2023/08/02 04:42:03;;;;;;;3.15;1.25;;;13.40;99.90;;;;;;5057245;28;20037;-66
2023/08/02 04:44:29;;;;;;;;;;;13.40;99.90;;;;;;5059076;28;20037;-66
2023/08/02 04:46:54;;;;;;;6.85;2.15;;;13.40;99.90;;;;;;5057085;28;19920;-66
2023/08/02 04:49:20;;;;;;;3.03;1.33;;;13.40;99.90;;;;;;5054597;28;20037;-66
2023/08/02 04:51:46;;;;;;;;;;;13.30;99.90;;;;;;5049844;28;20044;-66
2023/08/02 04:54:11;;;;;;;2.22;1.30;;;13.30;99.90;;;;;;5061743;28;20311;-65
2023/08/02 04:56:38;;;;;;;;;;;13.30;99.90;;;;;;5060147;28;20167;-66
2023/08/02 04:59:05;;;;;;;3.60;1.53;;;13.40;99.90;;;;;;5059347;28;19956;-66
2023/08/02 05:01:31;;;;;;;3.10;1.13;;;13.30;99.90;;;;;;5070390;28;20774;-66
2023/08/02 05:03:57;;;;;;;;;;;13.30;99.90;;;;;;5078393;28;20044;-66
2023/08/02 05:06:22;;;;;;;2.72;1.13;;;13.30;99.90;;;;;;5080989;28;20372;-66
2023/08/02 05:08:48;;;;;;;;;;;13.40;99.90;;;;;;5081279;28;20043;-66
2023/08/02 05:11:14;;;;;;;2.58;1.00;;;13.40;99.90;;;;;;5079549;28;19923;-66
2023/08/02 05:13:39;;;;;;;2.25;1.10;;;13.30;99.90;;;;;;5079305;28;20773;-66
2023/08/02 05:16:14;;;;;;;2.63;1.30;;;13.40;99.90;;;;;;5084626;28;20049;-65
2023/08/02 05:18:40;;;;;;;3.85;1.50;;;13.40;99.90;;;;;;5077875;28;20051;-66
2023/08/02 05:21:13;;;;;;;3.25;1.42;;;13.50;99.90;;;;;;5083432;28;20060;-66
2023/08/02 05:23:40;;;;;;;4.57;1.27;;;13.50;99.90;;;;;;5075745;28;20044;-66
2023/08/02 05:26:06;;;;;;;3.20;1.70;;;13.50;99.90;;;;;;5072054;28;20491;-67
2023/08/02 05:28:32;;;;;;;9.00;1.60;;;13.50;99.90;;;;;;5071126;28;20036;-66
2023/08/02 05:30:57;;;;;;;;;;;13.50;99.90;;;;;;5071932;28;20507;-66
2023/08/02 05:33:23;;;;;;;5.88;1.98;;;13.50;99.90;;;;;;5079948;28;19923;-65
2023/08/02 05:35:49;;;;;;;6.40;2.42;;;13.50;99.90;;;;;;5081873;28;20788;-65
2023/08/02 05:38:14;;;;;;;;;;;13.50;99.90;;;;;;5078924;28;20085;-64
2023/08/02 05:40:40;;;;;;;7.38;2.22;;;13.60;99.90;;;;;;5074455;28;20356;-65
2023/08/02 05:43:06;;;;;;;3.78;1.90;;;13.50;99.90;;;;;;5083038;28;20047;-67
2023/08/02 05:45:32;;;;;;;8.40;2.92;;;13.60;99.90;;;;;;5072178;28;20051;-65
2023/08/02 05:47:58;;;;;;;;;;;13.60;99.90;;;;;;5072616;28;20047;-63
2023/08/02 05:50:24;;;;;;;5.93;2.08;;;13.60;99.90;;;;;;5069988;28;20374;-78
2023/08/02 05:52:49;;;;;;;6.57;2.03;;;13.60;99.90;;;;;;5081105;28;20040;-63
2023/08/02 05:55:15;;;;;;;;;;;13.70;99.90;;;;;;5075132;28;20047;-65
2023/08/02 05:57:41;;;;;;;4.72;1.80;;;13.70;99.90;;;;;;5081620;28;19945;-65
2023/08/02 06:00:08;;;;;;;;;;;13.70;99.90;;;;;;5075654;28;20756;-65
2023/08/02 06:02:34;;;;;;;9.40;2.90;;;13.80;99.90;;;;;;5060144;28;19916;-67
2023/08/02 06:04:59;;;;;;;;;;;13.80;99.90;;;;;;5061021;28;20122;-67
2023/08/02 06:07:25;;;;;;;3.47;2.03;;;13.80;99.90;;;;;;5059888;28;20364;-63
2023/08/02 06:09:50;;;;;;;;;;;13.80;99.90;;;;;;5058581;28;20037;-64
2023/08/02 06:12:16;;;;;;;7.18;2.60;;;13.80;99.90;;;;;;5052826;28;20509;-64
2023/08/02 06:14:42;;;;;;;;;;;13.90;99.90;;;;;;5059217;28;20381;-65
2023/08/02 06:17:08;;;;;;;9.85;2.60;;;13.90;99.90;;;;;;5057941;28;20447;-64
2023/08/02 06:19:33;;;;;;;7.30;2.72;;;13.90;99.90;;;;;;5054930;28;20052;-66
2023/08/02 06:21:59;;;;;;;;;;;13.90;99.90;;;;;;5053803;28;20079;-66
2023/08/02 06:24:24;;;;;;;4.72;2.22;;;14.00;99.90;;;;;;5060906;28;19921;-66
2023/08/02 06:26:50;;;;;;;;;;;14.00;99.90;;;;;;5062023;28;20503;-66
2023/08/02 06:29:15;;;;;;;8.07;2.60;;;14.00;99.90;;;;;;5056243;28;19923;-66
2023/08/02 06:31:41;;;;;;;;;;;14.00;99.90;;;;;;5059495;28;20075;-66
2023/08/02 06:34:06;;;;;;;4.43;2.38;;;14.10;99.90;;;;;;5061700;28;19920;-66
2023/08/02 06:36:32;;;;;;;;;;;14.00;99.90;;;;;;5061015;28;20055;-67
2023/08/02 06:38:58;;;;;;;8.20;2.70;;;14.00;99.90;;;;;;5055847;28;19916;-66
2023/08/02 06:41:24;;;;;;;;;;;14.00;99.90;;;;;;5062432;28;20062;-66
2023/08/02 06:43:50;;;;;;;5.10;2.33;;;14.00;99.90;;;;;;5062753;28;20292;-67
2023/08/02 06:46:15;;;;;;;5.63;2.47;;;14.00;99.90;;;;;;5054702;28;20400;-66
2023/08/02 06:48:41;;;;;;;;;;;14.00;99.90;;;;;;5057359;28;20040;-66
2023/08/02 06:51:13;;;;;;;5.35;2.35;;;14.00;99.90;;;;;;5061445;28;19917;-65
2023/08/02 06:53:39;;;;;;;4.38;2.08;;;14.10;99.90;;;;;;5063553;28;20072;-66
2023/08/02 06:56:12;;;;;;;;;;;14.10;99.90;;;;;;5059126;28;20079;-66
2023/08/02 06:58:38;;;;;;;3.55;2.08;;;14.10;99.90;;;;;;5058662;28;20300;-67
2023/08/02 07:01:15;;;;;;;3.17;1.95;;;14.10;99.90;;;;;;5063567;28;20548;-66
2023/08/02 07:03:41;;;;;;;4.82;1.75;;;14.10;99.90;;;;;;5082546;28;20395;-66
2023/08/02 07:06:15;;;;;;;3.10;1.92;;;14.10;99.90;;;;;;5077482;28;20060;-66
2023/08/02 07:08:41;;;;;;;2.28;1.65;;;14.20;99.90;;;;;;5079954;28;20048;-66
2023/08/02 07:11:07;;;;;;;5.10;1.70;;;14.10;99.90;;;;;;5083645;28;20723;-66
2023/08/02 07:13:36;;;;;;;3.08;1.40;;;14.20;99.90;;;;;;5079586;28;20036;-67
2023/08/02 07:16:03;;;;;;;2.22;1.50;;;14.20;99.90;;;;;;5076880;28;20259;-66
2023/08/02 07:18:29;;;;;;;5.65;1.52;;;14.20;99.90;;;;;;5080406;28;20845;-67
2023/08/02 07:20:54;;;;;;;;;;;14.20;99.90;;;;;;5082206;28;20036;-67
2023/08/02 07:23:21;;;;;;;3.13;1.60;;;14.20;99.90;;;;;;5082854;28;19923;-67
2023/08/02 07:25:47;;;;;;;3.17;1.38;;;14.10;99.90;;;;;;5077653;28;20048;-67
2023/08/02 07:28:12;;;;;;;;;;;14.10;99.90;;;;;;5085289;28;20040;-67
2023/08/02 07:30:38;;;;;;;6.53;2.55;;;14.10;99.90;;;;;;5080834;28;20011;-66
2023/08/02 07:33:04;;;;;;;4.45;2.30;;;14.10;99.90;;;;;;5059713;28;20093;-67
2023/08/02 07:35:29;;;;;;;;;;;14.10;99.90;;;;;;5063085;28;20155;-67
2023/08/02 07:37:55;;;;;;;5.03;3.40;;;14.00;99.90;;;;;;5062672;28;20353;-66
2023/08/02 07:40:21;;;;;;;;;;;14.00;99.90;;;;;;5068584;28;20028;-67
2023/08/02 07:42:46;;;;;;;8.57;4.25;;;14.00;99.90;;;;;;5067636;28;19916;-67
2023/08/02 07:45:12;;;;;;;7.07;3.60;;;14.00;99.90;;;;;;5063996;28;20534;-66
2023/08/02 07:47:38;;;;;;;;;;;14.00;99.90;;;;;;5062619;28;20047;-67
2023/08/02 07:50:07;;;;;;;6.57;3.55;;;14.00;99.90;;;;;;5060038;28;19981;-67
2023/08/02 07:52:34;;;;;;;6.82;3.85;;;14.00;99.90;;;;;;5068050;28;20063;-66
2023/08/02 07:55:00;;;;;;;6.30;2.97;;;14.00;99.90;;;;;;5067714;28;20040;-66
2023/08/02 07:57:31;;;;;;;5.30;2.80;;;14.00;99.90;;;;;;5060193;28;20180;-66
2023/08/02 07:59:58;;;;;;;3.35;2.42;;;14.00;99.90;;;;;;5070203;28;20040;-67
2023/08/02 08:02:25;;;;;;;4.80;2.05;;;14.00;99.90;;;;;;5066683;28;20048;-67
2023/08/02 08:04:51;;;;;;;4.15;2.30;;;14.00;99.90;;;;;;5066934;28;20048;-67
2023/08/02 08:07:17;;;;;;;2.88;1.83;;;14.00;99.90;;;;;;5062881;28;20056;-67
2023/08/02 08:09:42;;;;;;;;;;;14.00;99.90;;;;;;5050587;28;20037;-66
2023/08/02 08:12:08;;;;;;;4.88;1.80;;;14.00;99.90;;;;;;5062341;28;20300;-66
2023/08/02 08:14:34;;;;;;;;;;;14.00;99.90;;;;;;5066647;28;20101;-66
2023/08/02 08:17:00;;;;;;;2.97;2.15;;;14.10;99.90;;;;;;5059848;28;19924;-67
2023/08/02 08:19:26;;;;;;;;;;;14.20;99.90;;;;;;5060438;28;20036;-66
2023/08/02 08:21:52;;;;;;;2.20;1.77;;;14.20;99.90;;;;;;5055740;28;19955;-66
2023/08/02 08:24:18;;;;;;;;;;;14.20;99.90;;;;;;5068384;28;20072;-66
2023/08/02 08:26:44;;;;;;;2.15;1.27;;;14.20;99.90;;;;;;5067516;28;19927;-66
2023/08/02 08:29:09;;;;;;;;;;;14.20;99.90;;;;;;5063258;28;20037;-67
2023/08/02 08:31:36;;;;;;;1.98;1.17;;;14.20;99.90;;;;;;5059405;28;19969;-66
2023/08/02 08:34:09;;;;;;;1.85;1.13;;;14.30;99.90;;;;;;5061749;28;20048;-67
2023/08/02 08:36:35;;;;;;;2.28;1.02;;;14.30;99.90;;;;;;5065334;28;20045;-66
2023/08/02 08:39:01;;;;;;;;;;;14.40;99.90;;;;;;5046788;28;20129;-66
2023/08/02 08:41:26;;;;;;;1.40;1.10;;;14.40;99.90;;;;;;5073593;28;20436;-65
2023/08/02 08:43:52;;;;;;;1.17;0.80;;;14.40;99.90;;;;;;5060150;28;20048;-66
2023/08/02 08:46:17;;;;;;;;;;;14.40;99.90;;;;;;5063281;28;20052;-65
2023/08/02 08:48:43;;;;;;;2.08;0.75;;;14.50;99.90;;;;;;5059388;28;19920;-66
2023/08/02 08:51:09;;;;;;;;;;;14.50;99.90;;;;;;5063894;28;20036;-66
2023/08/02 08:53:39;;;;;;;0.93;0.60;;;14.60;99.90;;;;;;5073766;28;20460;-66
2023/08/02 08:56:05;;;;;;;0.63;0.50;;;14.70;99.90;;;;;;5065807;28;20048;-70
2023/08/02 08:58:35;;;;;;;0.65;0.45;;;14.70;99.90;;;;;;5067010;28;20044;-66
2023/08/02 09:01:04;;;;;;;0.85;0.52;;;14.90;99.90;;;;;;5066352;28;20115;-66
2023/08/02 09:03:33;;;;;;;0.50;0.50;;;14.90;99.90;;;;;;5066598;28;20052;-66
2023/08/02 09:06:03;;;;;;;0.57;0.38;;;14.90;99.90;;;;;;5060579;28;20048;-66
2023/08/02 09:08:29;;;;;;;1.23;0.35;;;15.00;99.90;;;;;;5064384;28;20616;-66
2023/08/02 09:10:57;;;;;;;0.30;0.30;;;15.10;99.90;;;;;;5067443;28;20052;-66
2023/08/02 09:13:27;;;;;;;0.73;0.28;;;15.20;99.90;;;;;;5067281;28;20060;-66
2023/08/02 09:16:09;;;;;;;0.20;0.20;;;15.20;99.90;;;;;;5052357;28;20213;-66
2023/08/02 09:18:43;;;;;;;0.22;0.20;;;15.30;99.90;;;;;;5060190;28;20037;-66
2023/08/02 09:21:14;;;;;;;0.30;0.30;;;15.30;99.90;;;;;;5059727;28;20474;-66
2023/08/02 09:24:00;;;;;;;0.22;0.20;;;15.40;99.90;;;;;;5067730;28;20050;-66
2023/08/02 09:26:27;;;;;;;0.28;0.20;;;15.50;99.90;;;;;;5068061;28;20060;-66
2023/08/02 09:29:04;;;;;;;0.30;0.30;;;15.60;99.90;;;;;;5059935;28;20076;-66
2023/08/02 09:31:33;;;;;;;0.20;0.20;;;15.50;99.90;;;;;;5055396;28;20060;-65
2023/08/02 09:33:59;;;;;;;0.35;0.30;;;15.50;99.90;;;;;;5066992;28;20602;-66
2023/08/02 09:36:32;;;;;;;;;;;15.50;99.90;;;;;;5068980;28;20063;-66
2023/08/02 09:39:14;;;;;;;2.25;0.20;;;15.60;99.90;;;;;;5065712;28;19967;-66
2023/08/02 09:41:40;;;;;;;1.10;0.75;;;15.60;99.90;;;;;;5061457;28;20049;-66
2023/08/02 09:44:07;;;;;;;0.35;0.15;;;15.40;99.90;;;;;;5064132;28;20407;-66
2023/08/02 09:46:34;;;;;;;3.95;0.20;;;15.30;99.90;;;;;;5067186;28;20036;-66
2023/08/02 09:49:17;;;;;;;0.30;0.20;;;15.20;99.90;;;;;;5065164;28;20036;-66
2023/08/02 09:51:44;;;;;;;0.17;0.15;;;15.20;99.90;;;;;;5056823;28;20037;-66
2023/08/02 09:54:11;;;;;;;0.30;0.20;;;15.20;99.90;;;;;;5060774;28;20049;-66
2023/08/02 09:56:39;;;;;;;0.13;0.10;;;15.10;99.90;;;;;;5056261;28;20043;-66
2023/08/02 09:59:06;;;;;;;0.10;0.10;;;15.10;99.90;;;;;;5060983;28;20044;-66
2023/08/02 10:01:33;;;;;;;0.65;0.17;;;15.20;99.90;;;;;;5063112;28;20104;-66
2023/08/02 10:04:03;;;;;;;0.55;0.28;;;15.30;99.90;;;;;;5065462;28;20039;-66
2023/08/02 10:06:42;;;;;;;2.28;0.10;;;15.50;99.90;;;;;;5062619;28;20462;-67
2023/08/02 10:09:08;;;;;;;0.22;0.22;;;15.50;99.90;;;;;;5060540;28;20048;-66
2023/08/02 10:12:03;;;;;;;;;;;15.60;99.90;;;;;;5062982;28;20691;-66
2023/08/02 10:14:30;;;;;;;0.20;0.10;;;15.60;99.90;;;;;;5046843;28;19923;-66
2023/08/02 10:17:00;;;;;;;0.40;0.10;;;15.50;99.90;;;;;;5064911;28;20074;-68
2023/08/02 10:19:28;;;;;;;0.10;0.10;;;15.40;99.90;;;;;;5060779;28;20052;-66
2023/08/02 10:21:56;;;;;;;1.58;0.30;;;15.30;99.90;;;;;;5057563;28;20040;-66
2023/08/02 10:24:25;;;;;;;0.55;0.20;;;15.30;99.90;;;;;;5064014;28;20404;-67
2023/08/02 10:26:52;;;;;;;0.30;0.20;;;15.30;99.90;;;;;;5064736;28;20392;-67
2023/08/02 10:29:19;;;;;;;0.10;0.10;;;15.30;99.90;;;;;;5063416;28;20055;-66
2023/08/02 10:31:45;;;;;;;0.15;0.10;;;15.30;99.90;;;;;;5060602;28;20040;-67
2023/08/02 10:34:42;;;;;;;;;;;15.30;99.90;;;;;;5046849;28;20049;-67
2023/08/02 10:37:08;;;;;;;0.68;0.30;;;15.50;99.90;;;;;;5013545;28;20360;-67
2023/08/02 10:39:46;;;;;;;;;;;15.60;99.90;;;;;;5059363;28;20036;-66
2023/08/02 10:42:19;;;;;;;3.42;0.30;;;15.70;99.90;;;;;;5062642;28;19926;-67
2023/08/02 10:44:57;;;;;;;0.75;0.20;;;15.90;99.90;;;;;;5063916;28;20040;-66
2023/08/02 10:47:35;;;;;;;0.10;0.10;;;16.00;99.90;;;;;;5057731;28;20049;-66
2023/08/02 10:50:02;;;;;;;0.30;0.20;;;16.10;99.90;;;;;;5060011;28;20151;-66
2023/08/02 10:52:33;;;;;;;0.10;0.10;;;16.10;99.90;;;;;;5064402;28;20432;-66
2023/08/02 10:55:05;;;;;;;0.60;0.20;;;16.10;99.90;;;;;;5058024;28;20047;-66
2023/08/02 10:57:30;;;;;;;2.08;0.30;;;16.20;99.90;;;;;;5063973;28;20040;-65
2023/08/02 10:59:56;;;;;;;;;;;16.10;99.90;;;;;;5061349;28;20046;-66
2023/08/02 11:02:25;;;;;;;0.40;0.20;;;16.10;99.90;;;;;;5054695;28;20114;-66
2023/08/02 11:04:51;;;;;;;0.13;0.13;;;16.00;99.90;;;;;;5053966;28;20044;-64
2023/08/02 11:07:20;;;;;;;0.28;0.20;;;15.90;99.90;;;;;;5059563;28;20574;-67
2023/08/02 11:09:48;;;;;;;0.25;0.20;;;15.80;99.90;;;;;;5055967;28;20048;-64
2023/08/02 11:12:16;;;;;;;1.65;0.20;;;15.90;99.90;;;;;;5059459;28;20456;-65
2023/08/02 11:14:43;;;;;;;1.13;0.28;;;15.90;99.90;;;;;;5047100;28;20037;-65
2023/08/02 11:17:10;;;;;;;0.13;0.13;;;15.90;99.90;;;;;;5055326;28;20057;-65
2023/08/02 11:19:36;;;;;;;0.40;0.20;;;15.90;99.90;;;;;;5059285;28;20048;-64
2023/08/02 11:22:03;;;;;;;0.20;0.10;;;15.90;99.90;;;;;;5055071;28;20076;-64
2023/08/02 11:24:41;;;;;;;0.30;0.30;;;16.00;99.90;;;;;;5055589;28;20041;-65
2023/08/02 11:27:07;;;;;;;0.10;0.10;;;16.00;99.90;;;;;;5053833;28;20045;-65
2023/08/02 11:29:34;;;;;;;;;;;16.10;99.90;;;;;;5049587;28;20132;-65
2023/08/02 11:32:04;;;;;;;0.20;0.20;;;16.20;99.90;;;;;;5053627;28;20019;-65
2023/08/02 11:34:35;;;;;;;0.13;0.13;;;16.30;99.90;;;;;;5074463;28;20354;-65
2023/08/02 11:37:02;;;;;;;0.30;0.20;;;16.30;99.90;;;;;;5062067;28;20043;-65
2023/08/02 11:39:28;;;;;;;0.50;0.20;;;16.30;99.90;;;;;;5049641;28;20044;-65
2023/08/02 11:42:03;;;;;;;;;;;16.40;99.90;;;;;;5060412;28;20067;-66
2023/08/02 11:44:29;;;;;;;0.10;0.10;;;16.30;99.90;;;;;;5055815;28;19920;-65
2023/08/02 11:46:56;;;;;;;;;;;16.40;99.90;;;;;;5059833;28;20450;-65
2023/08/02 11:49:22;;;;;;;0.28;0.10;;;16.50;99.90;;;;;;5063752;28;19931;-66
2023/08/02 11:51:48;;;;;;;0.75;0.20;;;16.40;99.90;;;;;;5062765;28;20049;-66
2023/08/02 11:54:14;;;;;;;;;;;16.50;99.90;;;;;;5065985;28;20094;-66
2023/08/02 11:56:40;;;;;;;0.20;0.20;;;16.50;99.90;;;;;;5057993;28;19924;-66
2023/08/02 11:59:09;;;;;;;;;;;16.50;99.90;;;;;;5056002;28;20035;-66
2023/08/02 12:01:34;;;;;;;0.45;0.30;;;16.50;99.90;;;;;;5061747;28;19991;-66
2023/08/02 12:04:01;;;;;;;;;;;16.50;99.90;;;;;;5062580;28;20481;-65
2023/08/02 12:06:43;;;;;;;0.20;0.10;;;16.50;99.90;;;;;;5063010;28;19917;-65
2023/08/02 12:09:08;;;;;;;0.50;0.40;;;16.60;99.90;;;;;;5053029;28;20060;-66
2023/08/02 12:11:34;;;;;;;;;;;16.60;99.90;;;;;;5055517;28;21563;-65
2023/08/02 12:14:02;;;;;;;0.20;0.10;;;16.60;99.90;;;;;;5049693;28;19999;-65
2023/08/02 12:16:41;;;;;;;0.43;0.15;;;16.70;99.90;;;;;;5055087;28;20048;-66
2023/08/02 12:19:08;;;;;;;0.75;0.10;;;16.70;99.90;;;;;;5055730;28;20040;-65
2023/08/02 12:21:34;;;;;;;1.00;0.10;;;16.80;99.90;;;;;;5056630;28;20040;-65
2023/08/02 12:23:59;;;;;;;;;;;16.90;99.90;;;;;;5059080;28;20032;-66
2023/08/02 12:26:35;;;;;;;0.10;0.10;;;16.80;99.90;;;;;;5061953;28;19912;-65
2023/08/02 12:29:02;;;;;;;0.20;0.20;;;16.80;99.90;;;;;;5046704;28;20040;-66
2023/08/02 12:31:29;;;;;;;0.25;0.10;;;16.80;99.90;;;;;;5064730;28;20454;-65
2023/08/02 12:33:54;;;;;;;0.35;0.20;;;16.90;99.90;;;;;;5079909;28;20040;-65
2023/08/02 12:36:24;;;;;;;;;;;16.90;99.90;;;;;;5082020;28;20032;-65
2023/08/02 12:38:50;;;;;;;0.65;0.10;;;16.90;99.90;;;;;;5073424;28;20311;-65
2023/08/02 12:41:15;;;;;;;;;;;16.90;99.90;;;;;;5081204;28;20492;-65
2023/08/02 12:43:41;;;;;;;0.10;0.10;;;16.90;99.90;;;;;;5079027;28;19920;-66
2023/08/02 12:46:06;;;;;;;;;;;17.00;99.90;;;;;;5077214;28;20506;-65
2023/08/02 12:48:32;;;;;;;1.08;0.20;;;16.90;99.90;;;;;;5066152;28;19920;-66
2023/08/02 12:50:58;;;;;;;0.80;0.10;;;16.90;99.90;;;;;;5080927;28;20032;-66
2023/08/02 12:53:23;;;;;;;0.20;0.20;;;17.00;99.90;;;;;;5081059;28;20412;-65
2023/08/02 12:55:49;;;;;;;;;;;16.90;99.90;;;;;;5085657;28;20660;-65
2023/08/02 12:58:14;;;;;;;0.75;0.15;;;17.00;99.90;;;;;;5081150;28;19926;-65
2023/08/02 13:00:42;;;;;;;0.28;0.10;;;17.00;99.90;;;;;;5078153;28;20037;-66
2023/08/02 13:03:09;;;;;;;0.40;0.20;;;17.10;99.90;;;;;;5058677;28;20107;-65
2023/08/02 13:05:35;;;;;;;0.20;0.13;;;17.00;99.90;;;;;;5060710;28;20040;-64
2023/08/02 13:08:00;;;;;;;;;;;17.00;99.90;;;;;;5058884;28;20041;-65
2023/08/02 13:10:27;;;;;;;3.10;0.10;;;17.00;99.90;;;;;;5051882;28;20355;-65